Time;durP1;ratioP1;P1;durP2;ratioP2;P2;SDS_P1;SDS_P2;PMS_P1;PMS_P2;Temp;Humidity;BMP_temperature;BMP_pressure;BME280_temperature;BME280_humidity;BME280_pressure;Samples;Min_cycle;Max_cycle;Signal;HPM_P1;HPM_P2
2023/07/13 00:01:38;;;;;;;7.07;6.47;;;;;;;;;;5046546;28;20222;-64
2023/07/13 00:04:05;;;;;;;10.30;7.38;;;;;;;;;;5046097;28;20202;-65
2023/07/13 00:06:32;;;;;;;7.55;6.35;;;;;;;;;;5046681;28;20211;-64
2023/07/13 00:08:59;;;;;;;7.75;6.72;;;;;;;;;;5046937;28;20324;-64
2023/07/13 00:11:27;;;;;;;7.15;5.90;;;;;;;;;;5045949;28;20600;-64
2023/07/13 00:13:53;;;;;;;7.40;5.43;;;;;;;;;;5046730;28;20227;-65
2023/07/13 00:16:20;;;;;;;8.98;5.53;;;;;;;;;;5046259;28;20199;-64
2023/07/13 00:18:47;;;;;;;9.55;5.18;;;;;;;;;;5046042;28;20626;-63
2023/07/13 00:21:14;;;;;;;7.82;5.78;;;;;;;;;;5045930;28;20311;-63
2023/07/13 00:23:41;;;;;;;8.80;5.88;;;;;;;;;;5046230;28;20212;-63
2023/07/13 00:26:08;;;;;;;6.25;5.68;;;;;;;;;;5045643;28;20201;-65
2023/07/13 00:28:36;;;;;;;7.35;5.65;;;;;;;;;;5045851;28;20280;-63
2023/07/13 00:31:03;;;;;;;7.22;6.53;;;;;;;;;;5046449;28;20235;-64
2023/07/13 00:33:29;;;;;;;10.18;6.18;;;;;;;;;;5045390;28;20215;-65
2023/07/13 00:35:57;;;;;;;10.38;6.22;;;;;;;;;;5045763;28;20218;-64
2023/07/13 00:38:23;;;;;;;9.65;7.13;;;;;;;;;;5045423;28;20199;-64
2023/07/13 00:40:50;;;;;;;6.82;6.32;;;;;;;;;;5045844;28;20190;-64
2023/07/13 00:43:17;;;;;;;6.43;5.95;;;;;;;;;;5044265;28;20294;-63
2023/07/13 00:46:17;;;;;;;6.88;6.20;;;;;;;;;;5044538;28;20198;-64
2023/07/13 00:48:46;;;;;;;7.72;6.18;;;;;;;;;;5023328;28;20293;-64
2023/07/13 00:51:13;;;;;;;7.30;6.60;;;;;;;;;;5021858;28;20224;-61
2023/07/13 00:53:40;;;;;;;6.75;6.13;;;;;;;;;;5033580;28;20231;-63
2023/07/13 00:56:07;;;;;;;7.05;6.38;;;;;;;;;;5045666;28;20227;-65
2023/07/13 00:58:33;;;;;;;8.20;6.50;;;;;;;;;;5046441;28;20242;-63
2023/07/13 01:01:00;;;;;;;6.95;6.28;;;;;;;;;;5045181;28;20237;-64
2023/07/13 01:03:26;;;;;;;8.63;5.82;;;;;;;;;;5045494;28;20230;-61
2023/07/13 01:05:54;;;;;;;10.02;6.20;;;;;;;;;;5044299;28;20215;-64
2023/07/13 01:08:21;;;;;;;8.88;6.40;;;;;;;;;;5044678;28;20195;-64
2023/07/13 01:10:57;;;;;;;10.55;6.38;;;;;;;;;;5043936;28;20208;-64
2023/07/13 01:13:25;;;;;;;6.70;6.10;;;;;;;;;;5043937;28;20199;-63
2023/07/13 01:15:53;;;;;;;8.45;6.13;;;;;;;;;;5044001;28;20207;-63
2023/07/13 01:18:21;;;;;;;8.20;5.95;;;;;;;;;;5044023;28;20261;-62
2023/07/13 01:20:52;;;;;;;6.32;5.72;;;;;;;;;;5043713;28;20258;-65
2023/07/13 01:23:18;;;;;;;7.55;6.05;;;;;;;;;;5045512;28;20223;-66
2023/07/13 01:25:45;;;;;;;8.88;5.88;;;;;;;;;;5045093;28;20206;-63
2023/07/13 01:28:11;;;;;;;6.10;5.47;;;;;;;;;;5045736;28;20199;-64
2023/07/13 01:30:39;;;;;;;6.72;5.47;;;;;;;;;;5045777;28;20696;-64
2023/07/13 01:33:06;;;;;;;7.07;6.20;;;;;;;;;;5045698;28;20673;-64
2023/07/13 01:35:33;;;;;;;6.53;6.03;;;;;;;;;;5045309;28;20211;-64
2023/07/13 01:38:01;;;;;;;6.35;5.55;;;;;;;;;;5049156;28;20226;-64
2023/07/13 01:40:28;;;;;;;6.22;5.72;;;;;;;;;;5049143;28;20680;-63
2023/07/13 01:42:54;;;;;;;8.25;6.70;;;;;;;;;;5049088;28;20686;-64
2023/07/13 01:45:21;;;;;;;6.82;6.15;;;;;;;;;;5048780;28;20293;-63
2023/07/13 01:47:47;;;;;;;7.13;5.45;;;;;;;;;;5048769;28;20744;-64
2023/07/13 01:50:13;;;;;;;7.97;6.20;;;;;;;;;;5049410;28;20203;-64
2023/07/13 01:52:40;;;;;;;8.77;5.22;;;;;;;;;;5048692;28;20767;-64
2023/07/13 01:55:08;;;;;;;6.25;5.75;;;;;;;;;;5048991;28;20246;-64
2023/07/13 01:57:35;;;;;;;7.82;7.05;;;;;;;;;;5048292;28;20243;-63
2023/07/13 02:00:04;;;;;;;6.13;5.72;;;;;;;;;;5048600;28;20241;-64
2023/07/13 02:02:31;;;;;;;9.50;5.95;;;;;;;;;;5048074;28;20262;-65
2023/07/13 02:04:57;;;;;;;7.65;6.95;;;;;;;;;;5048983;28;20199;-65
2023/07/13 02:07:24;;;;;;;9.75;6.03;;;;;;;;;;5048366;28;20235;-64
2023/07/13 02:09:50;;;;;;;6.30;5.80;;;;;;;;;;5048705;28;20227;-64
2023/07/13 02:12:18;;;;;;;7.20;6.50;;;;;;;;;;5048128;28;20199;-64
2023/07/13 02:14:44;;;;;;;12.80;7.13;;;;;;;;;;5048722;28;20265;-64
2023/07/13 02:17:11;;;;;;;11.98;8.70;;;;;;;;;;5048595;28;20198;-63
2023/07/13 02:19:38;;;;;;;11.75;9.50;;;;;;;;;;5048427;28;20280;-64
2023/07/13 02:22:04;;;;;;;9.05;8.15;;;;;;;;;;5047324;28;20249;-63
2023/07/13 02:24:31;;;;;;;12.63;7.25;;;;;;;;;;5048521;28;20199;-64
2023/07/13 02:26:57;;;;;;;13.00;7.60;;;;;;;;;;5048119;28;20203;-64
2023/07/13 02:29:25;;;;;;;8.77;7.57;;;;;;;;;;5048311;28;20751;-65
2023/07/13 02:31:52;;;;;;;8.20;7.50;;;;;;;;;;5048093;28;20207;-63
2023/07/13 02:34:18;;;;;;;9.65;7.40;;;;;;;;;;5048562;28;20237;-64
2023/07/13 02:36:44;;;;;;;9.18;6.57;;;;;;;;;;5047874;28;20226;-64
2023/07/13 02:39:12;;;;;;;8.52;7.07;;;;;;;;;;5048357;28;20210;-64
2023/07/13 02:41:38;;;;;;;8.80;6.53;;;;;;;;;;5047326;28;20237;-64
2023/07/13 02:44:05;;;;;;;8.57;6.72;;;;;;;;;;5047395;28;20702;-64
2023/07/13 02:46:34;;;;;;;7.82;6.95;;;;;;;;;;5046545;28;20665;-62
2023/07/13 02:49:01;;;;;;;9.10;7.30;;;;;;;-59.87;87.92;145607.47;5047365;28;20202;-64
2023/07/13 02:51:28;;;;;;;7.45;6.43;;;;;;;;;;5046071;28;20600;-63
2023/07/13 02:53:54;;;;;;;7.68;6.32;;;;;;;;;;5048041;28;20573;-64
2023/07/13 02:56:23;;;;;;;8.23;7.47;;;;;;;;;;5047818;28;20257;-64
2023/07/13 02:58:50;;;;;;;10.85;7.25;;;;;;;;;;5047387;28;20638;-64
2023/07/13 03:01:18;;;;;;;10.20;7.50;;;;;;;;;;5048219;28;20223;-65
2023/07/13 03:03:46;;;;;;;8.27;7.18;;;;;;;;;;5048600;28;20238;-63
2023/07/13 03:06:13;;;;;;;10.07;8.15;;;;;;;;;;5047414;28;20203;-65
2023/07/13 03:08:40;;;;;;;7.32;6.63;;;;;;;;;;5046878;28;20286;-64
2023/07/13 03:11:07;;;;;;;12.18;7.18;;;;;;;;;;5046519;28;20282;-64
2023/07/13 03:13:34;;;;;;;8.50;7.43;;;;;;;;;;5046206;28;20774;-63
2023/07/13 03:16:01;;;;;;;9.43;7.63;;;;;;;;;;5046960;28;20199;-64
2023/07/13 03:18:27;;;;;;;10.68;7.80;;;;;;;;;;5046456;28;20239;-64
2023/07/13 03:20:55;;;;;;;14.07;7.40;;;;;;;;;;5046553;28;20731;-64
2023/07/13 03:23:22;;;;;;;10.68;7.38;;;;;;;;;;5048125;28;20219;-63
2023/07/13 03:25:49;;;;;;;10.43;8.32;;;;;;;;;;5047949;28;20637;-64
2023/07/13 03:28:16;;;;;;;13.70;8.63;;;;;;;;;;5047825;28;20218;-64
2023/07/13 03:30:42;;;;;;;9.55;8.18;;;;;;;;;;5047388;28;20260;-64
2023/07/13 03:33:09;;;;;;;8.63;7.75;;;;;;;;;;5046822;28;20708;-64
2023/07/13 03:35:36;;;;;;;12.55;7.93;;;;;;;;;;5047656;28;20265;-64
2023/07/13 03:38:04;;;;;;;8.05;7.25;;;;;;;;;;5047536;28;20638;-63
2023/07/13 03:40:30;;;;;;;8.15;7.38;;;;;;;;;;5047742;28;20269;-64
2023/07/13 03:42:57;;;;;;;10.82;8.32;;;;;;;;;;5046967;28;20258;-64
2023/07/13 03:45:23;;;;;;;10.90;8.20;;;;;;;;;;5047323;28;20268;-65
2023/07/13 03:47:50;;;;;;;8.65;7.75;;;;;;;;;;5047069;28;20230;-64
2023/07/13 03:50:16;;;;;;;16.90;7.07;;;;;;;;;;5047863;28;20203;-66
2023/07/13 03:52:42;;;;;;;8.18;6.90;;;;;;;;;;5046529;28;21380;-63
2023/07/13 03:55:10;;;;;;;9.20;6.43;;;;;;;;;;5047479;28;20253;-65
2023/07/13 03:57:37;;;;;;;8.85;7.28;;;;;;;;;;5046813;28;20233;-66
2023/07/13 04:00:04;;;;;;;9.43;6.75;;;;;;;;;;5046973;28;20202;-66
2023/07/13 04:02:31;;;;;;;13.75;6.60;;;;;;;;;;5046909;28;20312;-66
2023/07/13 04:04:57;;;;;;;7.97;7.28;;;;;;;;;;5046919;28;20230;-66
2023/07/13 04:07:24;;;;;;;12.95;11.77;;;;;;;;;;5046788;28;20206;-65
2023/07/13 04:09:50;;;;;;;17.13;14.70;;;;;;;;;;5047429;28;20195;-64
2023/07/13 04:12:18;;;;;;;13.20;9.77;;;;;;;;;;5046434;28;20274;-66
2023/07/13 04:14:45;;;;;;;9.88;8.30;;;;;;;;;;5047388;28;20711;-66
2023/07/13 04:17:11;;;;;;;11.50;8.27;;;;;;;;;;5046172;28;20203;-65
2023/07/13 04:19:38;;;;;;;8.63;7.80;;;;;;;;;;5046697;28;20234;-65
2023/07/13 04:22:04;;;;;;;10.55;7.45;;;;;;;;;;5046153;28;20230;-65
2023/07/13 04:24:31;;;;;;;9.48;7.72;;;;;;;;;;5047439;28;20199;-66
2023/07/13 04:26:59;;;;;;;36.70;30.27;;;;;;;;;;5046178;28;20210;-65
2023/07/13 04:29:27;;;;;;;20.30;16.15;;;;;;;;;;5044656;28;20982;-63
2023/07/13 04:31:53;;;;;;;18.08;10.18;;;;;;;;;;5044956;28;20238;-65
2023/07/13 04:34:20;;;;;;;10.20;7.55;;;;;;;;;;5047283;28;20192;-64
2023/07/13 04:36:46;;;;;;;19.00;7.68;;;;;;;;;;5046383;28;20203;-66
2023/07/13 04:39:12;;;;;;;10.70;8.40;;;;;;;;;;5046387;28;20237;-64
2023/07/13 04:41:39;;;;;;;27.63;17.83;;;;;;;;;;5044635;28;20305;-65
2023/07/13 04:44:05;;;;;;;40.95;30.23;;;;;;;;;;5046189;28;20236;-64
2023/07/13 04:46:33;;;;;;;15.90;14.15;;;;;;;;;;5045657;28;20211;-67
2023/07/13 04:49:00;;;;;;;12.32;9.32;;;;;;;;;;5046758;28;20195;-66
2023/07/13 04:51:27;;;;;;;11.73;8.23;;;;;;;;;;5045245;28;20322;-66
2023/07/13 04:53:53;;;;;;;15.13;8.30;;;;;;;;;;5046887;28;20215;-65
2023/07/13 04:56:20;;;;;;;21.45;9.52;;;;;;;;;;5046410;28;20199;-66
2023/07/13 04:58:47;;;;;;;9.35;8.40;;;;;;;;;;5046839;28;20293;-65
2023/07/13 05:01:14;;;;;;;15.32;10.13;;;;;;;;;;5045184;28;20260;-65
2023/07/13 05:03:41;;;;;;;10.27;8.50;;;;;;;;;;5045866;28;20226;-66
2023/07/13 05:06:10;;;;;;;10.93;9.95;;;;;;;;;;5045956;28;20268;-66
2023/07/13 05:08:37;;;;;;;14.20;9.63;;;;;;;;;;5044075;28;20210;-65
2023/07/13 05:11:04;;;;;;;14.13;8.95;;;;;;;;;;5045378;28;20199;-65
2023/07/13 05:13:31;;;;;;;10.70;9.60;;;;;;;;;;5047979;28;20696;-65
2023/07/13 05:15:58;;;;;;;13.98;7.93;;;;;;;;;;5048305;28;20203;-66
2023/07/13 05:18:24;;;;;;;10.63;8.20;;;;;;;;;;5048094;28;20203;-65
2023/07/13 05:20:58;;;;;;;10.57;8.75;;;;;;;;;;5048481;28;20250;-63
2023/07/13 05:23:24;;;;;;;10.23;9.20;;;;;;;;;;5048056;28;20250;-64
2023/07/13 05:25:51;;;;;;;18.15;8.32;;;;;;;;;;5049842;28;20230;-64
2023/07/13 05:28:17;;;;;;;13.07;8.60;;;;;;;;;;5049387;28;20214;-65
2023/07/13 05:30:46;;;;;;;10.57;8.45;;;;;;;;;;5049793;28;20234;-64
2023/07/13 05:33:12;;;;;;;13.40;8.43;;;;;;;;;;5049701;28;20199;-64
2023/07/13 05:35:39;;;;;;;11.45;8.63;;;;;;;;;;5049357;28;20666;-62
2023/07/13 05:38:07;;;;;;;11.45;7.68;;;;;;;;;;5049876;28;20292;-64
2023/07/13 05:40:33;;;;;;;13.57;7.95;;;;;;;;;;5050112;28;20203;-66
2023/07/13 05:43:00;;;;;;;12.90;7.78;;;;;;;;;;5049931;28;20281;-65
2023/07/13 05:45:26;;;;;;;12.88;8.27;;;;;;;;;;5048861;28;20203;-63
2023/07/13 05:47:53;;;;;;;11.73;8.18;;;;;;;;;;5048480;28;20203;-65
2023/07/13 05:50:19;;;;;;;14.93;8.45;;;;;;;;;;5050074;28;20285;-65
2023/07/13 05:52:46;;;;;;;9.93;8.57;;;;;;;;;;5049189;28;20243;-65
2023/07/13 05:55:14;;;;;;;8.70;7.72;;;;;;;;;;5049099;28;20239;-65
2023/07/13 05:57:40;;;;;;;10.48;8.25;;;;;;;;;;5048922;28;20290;-65
2023/07/13 06:00:07;;;;;;;9.50;8.27;;;;;;;;;;5049294;28;20199;-65
2023/07/13 06:02:34;;;;;;;9.43;8.38;;;;;;;;;;5049069;28;20202;-65
2023/07/13 06:05:00;;;;;;;14.30;7.88;;;;;;;;;;5049227;28;20199;-66
2023/07/13 06:07:27;;;;;;;11.68;8.25;;;;;;;;;;5049014;28;20230;-65
2023/07/13 06:09:53;;;;;;;8.00;7.30;;;;;;;;;;5048699;28;20206;-65
2023/07/13 06:12:21;;;;;;;12.75;8.32;;;;;;;;;;5048805;28;20695;-65
2023/07/13 06:14:47;;;;;;;40.63;11.40;;;;;;;;;;5047816;28;20739;-65
2023/07/13 06:17:14;;;;;;;12.75;8.68;;;;;;;;;;5048158;28;20661;-66
2023/07/13 06:19:40;;;;;;;12.35;8.40;;;;;;;;;;5048753;28;20207;-65
2023/07/13 06:22:07;;;;;;;9.65;8.63;;;;;;;;;;5047796;28;20261;-64
2023/07/13 06:24:33;;;;;;;12.70;8.55;;;;;;;;;;5048967;28;20660;-65
2023/07/13 06:27:00;;;;;;;12.23;7.97;;;;;;;;;;5048682;28;20264;-65
2023/07/13 06:29:27;;;;;;;16.60;10.65;;;;;;;;;;5049093;28;20294;-66
2023/07/13 06:31:54;;;;;;;16.60;13.70;;;;;;;;;;5048655;28;20215;-65
2023/07/13 06:34:20;;;;;;;15.30;11.50;;;;;;;;;;5048768;28;20231;-66
2023/07/13 06:36:47;;;;;;;15.80;8.85;;;;;;;;;;5048814;28;20210;-65
2023/07/13 06:39:14;;;;;;;12.32;8.60;;;;;;;;;;5048681;28;20260;-67
2023/07/13 06:41:40;;;;;;;17.25;10.93;;;;;;;;;;5048396;28;20226;-64
2023/07/13 06:44:07;;;;;;;19.02;10.30;;;;;;;;;;5046677;28;20277;-66
2023/07/13 06:46:35;;;;;;;13.48;8.48;;;;;;;;;;5046422;28;20202;-64
2023/07/13 06:49:01;;;;;;;8.70;8.05;;;;;;;;;;5048372;28;20217;-67
2023/07/13 06:51:28;;;;;;;7.82;7.18;;;;;;;;;;5046390;28;20523;-66
2023/07/13 06:53:55;;;;;;;11.38;8.05;;;;;;;;;;5048529;28;20198;-65
2023/07/13 06:56:22;;;;;;;9.13;8.45;;;;;;;;;;5047944;28;20288;-65
2023/07/13 06:58:48;;;;;;;10.57;7.80;;;;;;;;;;5048049;28;20199;-65
2023/07/13 07:01:15;;;;;;;12.07;7.28;;;;;;;;;;5046892;28;20206;-65
2023/07/13 07:03:42;;;;;;;8.35;7.40;;;;;;;;;;5046505;28;20245;-64
2023/07/13 07:06:13;;;;;;;10.65;8.18;;;;;;;;;;5046146;28;20230;-64
2023/07/13 07:08:39;;;;;;;9.88;8.18;;;;;;;;;;5046302;28;20287;-64
2023/07/13 07:11:06;;;;;;;9.10;7.35;;;;;;;;;;5046268;28;20230;-65
2023/07/13 07:13:32;;;;;;;9.35;7.82;;;;;;;;;;5045840;28;20244;-64
2023/07/13 07:16:00;;;;;;;8.77;7.90;;;;;;;;;;5046534;28;20280;-66
2023/07/13 07:18:26;;;;;;;8.02;7.30;;;;;;;;;;5047189;28;20214;-66
2023/07/13 07:20:54;;;;;;;8.82;8.00;;;;;;;;;;5047345;28;20230;-65
2023/07/13 07:23:21;;;;;;;11.55;7.80;;;;;;;;;;5044614;28;20287;-64
2023/07/13 07:25:47;;;;;;;9.55;8.27;;;;;;;;;;5047511;28;20237;-65
2023/07/13 07:28:17;;;;;;;9.27;8.35;;;;;;;;;;5046349;28;20198;-66
2023/07/13 07:30:45;;;;;;;19.15;8.35;;;;;;;;;;5046140;28;20214;-66
2023/07/13 07:33:12;;;;;;;12.13;7.72;;;;;;;;;;5047383;28;20641;-65
2023/07/13 07:35:38;;;;;;;24.52;8.90;;;;;;;;;;5046829;28;20295;-65
2023/07/13 07:38:06;;;;;;;9.07;7.93;;;;;;;;;;5047017;28;20293;-66
2023/07/13 07:40:32;;;;;;;10.98;8.88;;;;;;;;;;5046499;28;20206;-65
2023/07/13 07:42:59;;;;;;;10.82;9.80;;;;;;;;;;5047179;28;20203;-64
2023/07/13 07:45:27;;;;;;;31.98;22.00;;;;;;;;;;5047658;28;20206;-64
2023/07/13 07:47:54;;;;;;;17.13;8.70;;;;;;;;;;5047579;28;20210;-66
2023/07/13 07:50:21;;;;;;;17.85;10.30;;;;;;;;;;5046689;28;20205;-66
2023/07/13 07:52:47;;;;;;;15.23;8.50;;;;;;;;;;5046109;28;20222;-65
2023/07/13 07:55:15;;;;;;;14.18;9.25;;;;;;;;;;5045762;28;20259;-62
2023/07/13 07:57:42;;;;;;;18.35;8.77;;;;;;;;;;5046041;28;20237;-67
2023/07/13 08:00:08;;;;;;;13.13;9.07;;;;;;;;;;5047362;28;20233;-69
2023/07/13 08:02:35;;;;;;;13.55;8.75;;;;;;;;;;5046499;28;20279;-67
2023/07/13 08:05:01;;;;;;;19.75;9.65;;;;;;;;;;5046334;28;20795;-68
2023/07/13 08:07:28;;;;;;;13.77;9.05;;;;;;;;;;5046539;28;20268;-65
2023/07/13 08:09:54;;;;;;;14.82;8.65;;;;;;;;;;5047242;28;20233;-65
2023/07/13 08:12:22;;;;;;;11.50;8.70;;;;;;;;;;5045458;28;20214;-66
2023/07/13 08:14:53;;;;;;;11.95;9.05;;;;;;;;;;5047251;28;20308;-65
2023/07/13 08:17:19;;;;;;;11.98;9.18;;;;;;;;;;5046100;28;20210;-66
2023/07/13 08:19:46;;;;;;;13.23;9.75;;;;;;;;;;5045647;28;20643;-66
2023/07/13 08:22:12;;;;;;;14.57;9.52;;;;;;;;;;5043929;28;20291;-66
2023/07/13 08:24:39;;;;;;;9.77;8.80;;;;;;;;;;5044246;28;20222;-67
2023/07/13 08:27:06;;;;;;;13.95;8.82;;;;;;;;;;5046128;28;20218;-66
2023/07/13 08:29:34;;;;;;;11.48;9.75;;;;;;;;;;5046622;28;20210;-67
2023/07/13 08:32:00;;;;;;;18.38;9.02;;;;;;;51.56;nan;95295.34;5045171;28;20210;-65
2023/07/13 08:34:27;;;;;;;14.05;10.63;;;;;;;51.23;nan;95292.00;5045729;28;20226;-64
2023/07/13 08:36:54;;;;;;;37.50;30.23;;;;;;;51.30;nan;95281.56;5044915;28;20210;-66
2023/07/13 08:39:21;;;;;;;16.67;9.70;;;;;;;52.14;nan;95273.72;5046611;28;20238;-65
2023/07/13 08:41:55;;;;;;;13.80;12.50;;;;;;;51.20;nan;95289.88;5046711;28;20707;-65
2023/07/13 08:44:26;;;;;;;17.98;9.25;;;;;;;;;;5044953;28;20266;-65
2023/07/13 08:46:56;;;;;;;9.38;8.30;;;;;;;50.83;nan;95293.56;5048426;28;20230;-65
2023/07/13 08:49:24;;;;;;;11.75;8.50;;;;;;;51.62;nan;95288.75;5046879;28;20214;-65
2023/07/13 08:51:58;;;;;;;23.45;21.17;;;;;;;51.13;nan;95287.56;5049205;28;20222;-65
2023/07/13 08:54:30;;;;;;;19.42;17.60;;;;;;;50.61;nan;95296.94;5046867;28;20202;-64
2023/07/13 08:56:58;;;;;;;15.68;13.93;;;;;;;51.00;nan;95304.63;5049213;28;20194;-64
2023/07/13 08:59:27;;;;;;;20.90;15.85;;;;;;;51.02;nan;95303.22;5048831;28;20207;-64
2023/07/13 09:02:06;;;;;;;16.15;11.70;;;;;;;51.38;nan;95304.44;5050660;28;20221;-65
2023/07/13 09:04:37;;;;;;;12.25;11.15;;;;;;;51.87;nan;95312.56;5050237;28;20317;-65
2023/07/13 09:07:12;;;;;;;13.05;11.70;;;;;;;51.82;nan;95304.53;5050075;28;20264;-66
2023/07/13 09:09:51;;;;;;;12.63;10.07;;;;;;;51.28;nan;95305.44;5050009;28;20672;-65
2023/07/13 09:12:25;;;;;;;12.40;10.10;;;;;;;51.36;nan;95312.84;5050020;28;20237;-65
2023/07/13 09:14:55;;;;;;;11.93;9.65;;;;;;;51.05;nan;95309.94;5050123;28;20652;-65
2023/07/13 09:17:27;;;;;;;9.55;8.85;;;;;;;51.20;nan;95306.13;5049601;28;20583;-66
2023/07/13 09:20:00;;;;;;;14.02;9.68;;;;;;;50.93;nan;95317.78;5050624;28;20222;-66
2023/07/13 09:22:29;;;;;;;9.85;8.93;;;;;;;50.67;nan;95314.69;5050015;28;20787;-65
2023/07/13 09:25:02;;;;;;;10.07;9.38;;;;;;;50.02;nan;95312.75;5049379;28;20230;-65
2023/07/13 09:27:35;;;;;;;9.50;8.55;;;;;;;49.54;nan;95312.03;5049685;28;20260;-65
2023/07/13 09:30:34;;;;;;;8.77;7.97;;;;;;;48.93;nan;95317.38;5049415;28;20226;-63
2023/07/13 09:33:02;;;;;;;8.32;7.68;;;;;;;48.20;nan;95315.59;5049848;28;20230;-64
2023/07/13 09:35:31;;;;;;;13.88;8.05;;;;;;;47.37;nan;95302.00;5049569;28;20696;-63
2023/07/13 09:38:12;;;;;;;8.13;7.35;;;;;;;46.50;nan;95295.25;5049771;28;20256;-65
2023/07/13 09:40:49;;;;;;;8.05;7.38;;;;;;;45.19;nan;95310.00;5049590;28;20198;-65
2023/07/13 09:43:18;;;;;;;9.82;8.23;;;;;;;44.32;nan;95295.19;5049739;28;20650;-64
2023/07/13 09:45:47;;;;;;;8.38;7.55;;;;;;;43.50;nan;95298.97;5049531;28;20250;-64
2023/07/13 09:48:18;;;;;;;10.45;7.03;;;;;;;42.88;nan;95295.75;5049955;28;20203;-63
2023/07/13 09:50:45;;;;;;;11.65;7.47;;;;;;;;;;5049867;28;20203;-64
2023/07/13 09:53:15;;;;;;;11.57;7.45;;;;;;;;;;5048990;28;20627;-65
2023/07/13 09:55:43;;;;;;;9.18;7.72;;;;;;;39.62;nan;95277.66;5049277;28;20218;-65
2023/07/13 09:58:12;;;;;;;8.95;7.25;;;;;;;;;;5049019;28;20203;-63
2023/07/13 10:00:40;;;;;;;7.72;6.10;;;;;;;37.78;nan;95286.44;5048788;28;20199;-64
2023/07/13 10:03:07;;;;;;;10.98;6.07;;;;;;;;;;5049083;28;20688;-65
2023/07/13 10:05:41;;;;;;;10.55;4.72;;;;;;;;;;5048421;28;20308;-67
2023/07/13 10:08:16;;;;;;;5.80;5.30;;;;;;;;;;5049388;28;20293;-64
2023/07/13 10:10:42;;;;;;;9.40;6.00;;;;;;;;;;5048970;28;20210;-64
2023/07/13 10:13:22;;;;;;;7.60;5.35;;;;;;;;;;5049382;28;20207;-64
2023/07/13 10:15:49;;;;;;;6.22;4.97;;;;;;;;;;5048912;28;20210;-64
2023/07/13 10:18:17;;;;;;;12.93;4.97;;;;;;;;;;5049794;28;20230;-65
2023/07/13 10:20:44;;;;;;;7.75;4.95;;;;;;;;;;5047809;28;20284;-65
2023/07/13 10:23:22;;;;;;;8.23;5.40;;;;;;;34.50;nan;95287.88;5049228;28;20203;-64
2023/07/13 10:25:50;;;;;;;8.60;5.45;;;;;;;34.49;nan;95280.97;5047693;28;20222;-64
2023/07/13 10:28:30;;;;;;;5.75;5.35;;;;;;;34.41;nan;95266.91;5048939;28;20226;-64
2023/07/13 10:30:57;;;;;;;5.50;5.00;;;;;;;;;;5049109;28;20203;-65
2023/07/13 10:33:24;;;;;;;6.97;5.25;;;;;;;;;;5048652;28;20203;-65
2023/07/13 10:35:55;;;;;;;9.15;5.05;;;;;;;;;;5048779;28;20480;-63
2023/07/13 10:38:23;;;;;;;7.80;5.10;;;;;;;;;;5048786;28;20207;-63
2023/07/13 10:40:55;;;;;;;5.10;4.80;;;;;;;;;;5048749;28;20207;-63
2023/07/13 10:43:25;;;;;;;5.65;5.25;;;;;;;;;;5048332;28;20269;-63
2023/07/13 10:45:51;;;;;;;5.03;4.63;;;;;;;;;;5046063;28;20382;-64
2023/07/13 10:48:18;;;;;;;6.68;5.70;;;;;;;;;;5046473;28;20647;-63
2023/07/13 10:50:46;;;;;;;5.55;5.10;;;;;;;;;;5046900;28;20226;-63
2023/07/13 10:53:21;;;;;;;5.85;5.35;;;;;;;;;;5046702;28;20307;-64
2023/07/13 10:55:59;;;;;;;8.20;5.10;;;;;;;;;;5046817;28;20285;-63
2023/07/13 10:58:29;;;;;;;7.95;4.85;;;;;;;;;;5046739;28;20700;-63
2023/07/13 11:00:58;;;;;;;8.00;4.68;;;;;;;;;;5046425;28;20199;-63
2023/07/13 11:03:27;;;;;;;5.05;4.70;;;;;;;;;;5047604;28;20762;-64
2023/07/13 11:06:05;;;;;;;7.30;5.38;;;;;;;;;;5047716;28;20222;-62
2023/07/13 11:08:38;;;;;;;4.88;4.47;;;;;;;;;;5048216;28;20195;-62
2023/07/13 11:11:25;;;;;;;5.40;4.47;;;;;;;;;;5047824;28;20595;-64
2023/07/13 11:13:58;;;;;;;7.53;5.70;;;;;;;;;;5047804;28;20207;-65
2023/07/13 11:16:35;;;;;;;7.28;4.93;;;;;;;;;;5048077;28;20199;-63
2023/07/13 11:19:20;;;;;;;5.65;5.15;;;;;;;;;;5048107;28;20195;-63
2023/07/13 11:22:03;;;;;;;8.80;5.18;;;;;;;;;;5047438;28;20289;-64
2023/07/13 11:24:48;;;;;;;8.38;5.10;;;;;;;;;;5048046;28;20254;-64
2023/07/13 11:27:32;;;;;;;6.38;5.35;;;;;;;;;;5047416;28;20214;-64
2023/07/13 11:30:08;;;;;;;7.22;5.80;;;;;;;;;;5043697;28;20243;-63
2023/07/13 11:32:35;;;;;;;8.73;5.40;;;;;;;;;;5047613;28;20222;-65
2023/07/13 11:35:02;;;;;;;8.02;5.68;;;;;;;;;;5047493;28;20584;-63
2023/07/13 11:37:29;;;;;;;6.32;5.93;;;;;;;;;;5047796;28;20203;-64
2023/07/13 11:39:57;;;;;;;7.70;7.00;;;;;;;;;;5047695;28;20262;-63
2023/07/13 11:42:24;;;;;;;11.55;6.80;;;;;;;;;;5047266;28;20258;-64
2023/07/13 11:44:51;;;;;;;8.40;5.78;;;;;;;;;;5047324;28;20661;-64
2023/07/13 11:47:20;;;;;;;9.95;7.72;;;;;;;;;;5046989;28;20202;-64
2023/07/13 11:49:49;;;;;;;7.95;7.20;;;;;;;;;;5047635;28;20199;-64
2023/07/13 11:52:18;;;;;;;6.45;5.85;;;;;;;;;;5047535;28;20251;-64
2023/07/13 11:54:50;;;;;;;7.78;5.82;;;;;;;;;;5047253;28;20198;-64
2023/07/13 11:57:23;;;;;;;6.80;6.10;;;;;;;;;;5047116;28;20260;-63
2023/07/13 11:59:51;;;;;;;8.18;6.53;;;;;;;;;;5047700;28;20289;-62
2023/07/13 12:02:26;;;;;;;6.03;5.40;;;;;;;;;;5046573;28;20203;-63
2023/07/13 12:04:53;;;;;;;7.47;5.53;;;;;;;;;;5046815;28;20305;-64
2023/07/13 12:07:20;;;;;;;6.28;5.80;;;;;;;33.67;nan;95203.22;5047308;28;20253;-63
2023/07/13 12:09:47;;;;;;;6.40;5.90;;;;;;;;;;5047156;28;20241;-64
2023/07/13 12:12:14;;;;;;;7.80;6.20;;;;;;;;;;5046695;28;20199;-63
2023/07/13 12:14:42;;;;;;;6.75;5.68;;;;;;;;;;5046945;28;20645;-62
2023/07/13 12:17:12;;;;;;;9.55;5.53;;;;;;;;;;5046908;28;20252;-63
2023/07/13 12:19:39;;;;;;;7.03;5.80;;;;;;;;;;5046706;28;20199;-63
2023/07/13 12:22:10;;;;;;;8.00;5.50;;;;;;;;;;5046242;28;20226;-64
2023/07/13 12:24:37;;;;;;;8.52;5.50;;;;;;;;;;5047074;28;20199;-63
2023/07/13 12:27:04;;;;;;;6.95;4.88;;;;;;;;;;5046210;28;20203;-64
2023/07/13 12:29:32;;;;;;;7.32;6.57;;;;;;;;;;5046804;28;20789;-64
2023/07/13 12:32:00;;;;;;;6.53;5.85;;;;;;;;;;5046352;28;20214;-65
2023/07/13 12:34:27;;;;;;;7.22;5.93;;;;;;;;;;5046784;28;20235;-63
2023/07/13 12:36:55;;;;;;;8.50;5.60;;;;;;;;;;5046746;28;20198;-65
2023/07/13 12:39:24;;;;;;;8.93;4.90;;;;;;;;;;5046360;28;20693;-64
2023/07/13 12:41:52;;;;;;;6.13;5.00;;;;;;;34.06;nan;95122.81;5046943;28;20203;-61
2023/07/13 12:44:19;;;;;;;7.10;4.85;;;;;;;;;;5046915;28;20514;-64
2023/07/13 12:46:57;;;;;;;6.85;5.75;;;;;;;;;;5044063;28;20237;-65
2023/07/13 12:49:28;;;;;;;10.23;5.15;;;;;;;;;;5046008;28;20260;-65
2023/07/13 12:51:57;;;;;;;5.72;5.10;;;;;;;;;;5046290;28;20223;-64
2023/07/13 12:54:23;;;;;;;7.90;5.28;;;;;;;;;;5046415;28;20282;-65
2023/07/13 12:56:52;;;;;;;5.10;4.53;;;;;;;;;;5046663;28;20203;-65
2023/07/13 12:59:19;;;;;;;6.20;5.15;;;;;;;;;;5045830;28;20211;-65
2023/07/13 13:01:47;;;;;;;8.88;5.22;;;;;;;;;;5046243;28;20214;-65
2023/07/13 13:04:13;;;;;;;7.85;5.50;;;;;;;;;;5046418;28;20230;-64
2023/07/13 13:06:43;;;;;;;9.65;5.13;;;;;;;34.07;nan;95098.06;5045799;28;20571;-64
2023/07/13 13:09:13;;;;;;;6.47;5.30;;;;;;;;;;5044076;28;20681;-62
2023/07/13 13:11:39;;;;;;;6.07;5.45;;;;;;;;;;5044581;28;20294;-66
2023/07/13 13:14:06;;;;;;;8.13;5.18;;;;;;;;;;5044944;28;20191;-65
2023/07/13 13:16:34;;;;;;;11.98;4.95;;;;;;;;;;5044513;28;20223;-64
2023/07/13 13:19:03;;;;;;;6.15;4.43;;;;;;;;;;5044491;28;20207;-64
2023/07/13 13:21:29;;;;;;;10.02;5.60;;;;;;;;;;5044181;28;20249;-65
2023/07/13 13:23:57;;;;;;;9.95;5.30;;;;;;;;;;5046461;28;20623;-64
2023/07/13 13:26:24;;;;;;;7.43;5.90;;;;;;;;;;5046148;28;20219;-64
2023/07/13 13:28:50;;;;;;;7.95;5.10;;;;;;;;;;5046173;28;20248;-64
2023/07/13 13:31:17;;;;;;;6.32;5.28;;;;;;;;;;5045940;28;20207;-65
2023/07/13 13:33:45;;;;;;;5.28;4.82;;;;;;;;;;5049374;28;20217;-64
2023/07/13 13:36:16;;;;;;;5.00;4.60;;;;;;;;;;5049425;28;20767;-66
2023/07/13 13:38:43;;;;;;;7.13;4.43;;;;;;;;;;5050077;28;20203;-64
2023/07/13 13:41:13;;;;;;;11.57;5.75;;;;;;;;;;5049552;28;20688;-64
2023/07/13 13:43:39;;;;;;;13.00;4.95;;;;;;;;;;5049860;28;20272;-65
2023/07/13 13:46:15;;;;;;;8.52;5.15;;;;;;;33.77;nan;95050.81;5049404;28;20225;-65
2023/07/13 13:48:41;;;;;;;6.55;4.57;;;;;;;;;;5049269;28;20202;-65
2023/07/13 13:51:13;;;;;;;6.05;5.45;;;;;;;;;;5049663;28;20227;-63
2023/07/13 13:53:40;;;;;;;8.85;4.53;;;;;;;;;;5050095;28;20227;-65
2023/07/13 13:56:06;;;;;;;6.18;5.07;;;;;;;;;;5049334;28;20234;-65
2023/07/13 13:58:34;;;;;;;7.78;4.88;;;;;;;;;;5049470;28;20207;-65
2023/07/13 14:01:00;;;;;;;7.63;5.15;;;;;;;;;;5048775;28;20223;-64
2023/07/13 14:03:27;;;;;;;10.65;5.18;;;;;;;;;;5049334;28;20660;-65
2023/07/13 14:05:57;;;;;;;6.45;4.50;;;;;;;;;;5049442;28;20314;-65
2023/07/13 14:08:23;;;;;;;12.25;5.60;;;;;;;;;;5049710;28;20763;-65
2023/07/13 14:10:52;;;;;;;6.65;5.45;;;;;;;;;;5048729;28;20230;-65
2023/07/13 14:13:21;;;;;;;6.55;5.03;;;;;;;;;;5049218;28;20740;-64
2023/07/13 14:15:49;;;;;;;5.75;5.00;;;;;;;;;;5048460;28;20665;-64
2023/07/13 14:18:17;;;;;;;10.40;5.30;;;;;;;;;;5049242;28;20234;-65
2023/07/13 14:20:44;;;;;;;6.22;5.30;;;;;;;;;;5048247;28;20234;-66